Avon Lake, Iowa
Current Conditions -  °F | °C
As of 10:54 PM on Friday 28 Nov 2014 (Local Time) from KDSM Reporting Station
Few Clouds Few Clouds  
Wind Chill: 32°   Ceiling: Unl
Heat Index: 37°   Visibility: 10mi
Dew Point: 30°   Wind: 6mph
Humidity: 76%   Direction: 120°ESE
Pressure: 29.66"   Gusts: NA
Location:  41.4707°N, 93.4797°W
Report Text: KDSM 290454Z 12005KT 10SM FEW250 03/M01 A2966 RMK AO2 SLP050 T00281011
Loading
Personal Weather Stations






























Interactive Weather Map New forecast layout! Learn more

10-Day Weather Forecast

Advertisements
Track Severe Weather on mobile